Aviation Digital Data Service (ADDS)

Output produced by METARs form (1027 UTC 19 January 2019)
found at http://www.aviationweather.gov/metar/data/
 
KAIK 191015Z AUTO 08003KT 2 1/2SM BR OVC003 08/08 A3006 RMK AO2
KAND 190956Z AUTO 06008KT 3SM BR OVC002 08/07 A3003 RMK AO2 SLP167 T00780072
KAND 191002Z 1910/2006 06006KT 3SM BR VCSH OVC002 
     FM191200 07004KT 2SM -RA BR OVC003 
     FM191600 11006KT 1SM -RA BR OVC004 
     FM192200 17009KT 2SM RA BR SCT005 OVC012 
     FM200000 19011G19KT 2SM SHRA OVC015 WS020/18040KT
       
KBNL 191015Z AUTO 00000KT 3/4SM BR OVC003 11/11 A3004 RMK AO2
KARW 191015Z AUTO 10003KT 2 1/2SM BR BKN040 12/12 A3003 RMK AO2
KBBP 191015Z AUTO 00000KT 2 1/2SM BR OVC048 05/05 A3008 RMK AO2
KCDN 191015Z AUTO 00000KT 2 1/2SM BR BKN003 OVC020 07/07 A3007 RMK AO2
KCHS 190956Z 07003KT 6SM BR OVC003 13/12 A3005 RMK AO2 SLP176 T01280122
KCHS 190832Z 1909/2006 18004KT 4SM BR VCSH BKN004 BKN040 
     TEMPO 1909/1912 6SM BR SCT005 OVC030 
     FM191200 VRB03KT P6SM OVC025 
     FM191500 16005KT P6SM OVC080 
     FM191700 19011G21KT P6SM SCT200 
     PROB30 2001/2003 4SM -SHRA OVC028 
     FM200300 19014G24KT P6SM -SHRA OVC090
       
KJZI 191015Z AUTO 00000KT 1SM BR SCT037 BKN048 BKN075 13/13 A3006 RMK AO2 PWINO
KCQW 191015Z AUTO 00000KT 3SM BR SCT035 BKN048 OVC065 05/05 A3008 RMK AO2
KDCM 191015Z AUTO 07003KT 3SM BR OVC003 06/06 A3007 RMK AO2 LTG DSNT W
KCEU 190954Z AUTO 08005KT 5SM BR OVC003 08/07 A3004 RMK AO2 SLP172 T00780072
KCAE 190956Z 09004KT 6SM BR OVC008 09/09 A3006 RMK AO2 RAB0859E14 SLP177 P0000 T00890089
KCAE 191000Z 1910/2006 07004KT 6SM BR OVC007 
     FM191230 09004KT 1SM BR OVC003 
     FM191500 13005KT 4SM BR OVC007 
     FM191700 18008G18KT P6SM SCT008 BKN015 
     FM192000 18010G20KT P6SM SCT015 BKN035 
     FM200400 20018G26KT 2SM SHRA OVC008
       
KCUB 191001Z 1910/2006 07004KT 6SM BR OVC007 
     FM191230 09004KT 1SM BR OVC003 
     FM191500 13005KT 4SM BR OVC007 
     FM191700 18008G18KT P6SM SCT008 BKN015 
     FM192000 18010G20KT P6SM SCT015 BKN035 
     FM200400 20018G26KT 2SM SHRA OVC008
       
KHYW 191015Z AUTO 00000KT 5SM BR SCT042 BKN048 OVC065 07/07 A3009 RMK AO2
KUDG 191021Z AUTO 00000KT 2 1/2SM BR SCT001 BKN009 OVC048 06/06 A3009 RMK AO2
KFLO 191001Z 09003KT 5SM BR SCT025 OVC043 08/07 A3009 RMK AO2 T00780067
KFLO 190908Z 1909/2006 VRB03KT 4SM BR BKN045 
     TEMPO 1910/1914 BKN007 
     FM191400 10005KT P6SM OVC010 
     FM191700 16009KT P6SM BKN015 
     FM200000 17013G20KT 6SM SHRA BKN090
       
KGGE 191015Z AUTO 00000KT 10SM BKN038 OVC080 10/10 A3008 RMK AO2
KGYH 191015Z AUTO 04006KT 1SM BR OVC002 07/07 A3003 RMK AO2
KGMU 190953Z AUTO 05006KT 5SM BR OVC003 08/07 A3006 RMK AO2 SLP178 T00780072
KGMU 190910Z 1909/2006 06005KT 2SM BR VCSH OVC002 
     FM191300 08004KT 1SM -RA BR OVC003 
     FM191900 15009KT 1SM RA BR OVC003 
     FM200000 17010G18KT 2SM SHRA BR SCT005 OVC015 WS020/19040KT 
     FM200500 21010KT 3SM -SHRA BR SCT015 BKN025
       
KGRD 190956Z AUTO 04004KT 1 3/4SM BR OVC002 07/07 A3006 RMK AO2 SLP178 T00720072
KGSP 191017Z AUTO 04006KT 3SM BR OVC002 07/07 A3004 RMK AO2 T00670067
KGSP 191001Z 1910/2006 05005KT 1SM BR VCSH OVC002 
     FM191400 07004KT 1SM -RA BR OVC002 
     FM192000 15008KT 1SM RA BR OVC003 
     FM200000 17010G18KT 2SM SHRA BR SCT005 OVC015 WS020/19040KT 
     FM200500 21010KT 3SM -SHRA BR SCT015 BKN025
       
KHVS 191015Z AUTO 06005KT 4SM BR SCT042 BKN048 OVC065 06/06 A3007 RMK AO2
KHXD 191015Z AUTO VRB03KT 6SM BR CLR 14/13 A3005 RMK AO2
KCKI 191015Z AUTO 00000KT 10SM BKN006 BKN031 OVC044 08/07 A3008 RMK AO2
KLKR 191015Z AUTO 05003KT 4SM BR SCT005 OVC015 07/07 A3007 RMK AO2
KLUX 191015Z AUTO 00000KT 1/2SM FG OVC001 07/07 A3005 RMK AO2
KMNI 191015Z AUTO 00000KT 10SM OVC028 08/08 A3007 RMK AO2
KMAO 191015Z AUTO 00000KT 5SM BR OVC048 06/06 A3009 RMK AO2
KMKS 191015Z AUTO 00000KT 5SM BR OVC003 11/11 A3005 RMK AO2
KLRO 191015Z AUTO 00000KT 3SM BR BKN002 OVC039 13/13 A3006 RMK AO2
KMYR 190956Z AUTO 10004KT 10SM BKN060 OVC070 12/10 A3010 RMK AO2 SLP193 T01170100
KMYR 190540Z 1906/2006 03005KT P6SM BKN045 
     FM191100 09006KT P6SM OVC020 
     FM191900 16010KT P6SM BKN100 
     FM200300 18014KT P6SM BKN250 
     FM200500 19016G23KT P6SM BKN070
       
KEOE 191015Z AUTO 07003KT 4SM -DZ OVC004 07/07 A3008 RMK AO2
KCRE 190953Z AUTO 07003KT 7SM OVC070 09/09 A3008 RMK AO1 SLP187 T00890089
KCRE 191000Z 1910/2006 00000KT P6SM BKN060 
     FM191100 09006KT P6SM OVC015 
     FM191600 12009KT P6SM BKN020 
     FM192000 16009KT P6SM SCT070 
     FM200200 18012KT P6SM BKN250 
     FM200400 19014G21KT P6SM BKN070
       
KOGB 190953Z AUTO 08004KT 10SM OVC006 10/08 A3005 RMK AO2 SLP175 T01000083
KOGB 190742Z 1908/2006 10005KT 6SM BR OVC007 
     FM191500 15006KT P6SM SCT008 OVC022 
     FM191700 18010G20KT P6SM SCT015 BKN035 
     FM200500 20018G26KT 2SM SHRA OVC008
       
KLQK 191015Z AUTO 10004KT 3SM BR OVC003 08/08 A3002 RMK AO2 T00750075
KUZA 190954Z AUTO 15003KT 3SM BR OVC004 07/07 A3008 RMK AO2 SLP186 T00670067
KSPA 191015Z AUTO 00000KT 2 1/2SM BR OVC002 06/06 A3005 RMK AO2
KDYB 191015Z AUTO 00000KT 3/4SM RA OVC002 11/11 A3005 RMK AO1
KSMS 191015Z AUTO 00000KT 6SM BR SCT008 BKN020 OVC025 08/08 A3008 RMK AO2
KRBW 191015Z AUTO 00000KT 7SM OVC003 12/12 A3005 RMK AO2
KFDW 191015Z AUTO 09003KT 7SM BKN006 OVC011 07/07 A3006 RMK AO1